createdAt,value
2017-10-08T00:01:51.254Z,100320.41
2017-10-08T00:04:18.401Z,100324.42
2017-10-08T00:06:45.568Z,100325.64
2017-10-08T00:09:12.703Z,100327.45
2017-10-08T00:11:39.861Z,100331.02
2017-10-08T00:14:07.015Z,100330.60
2017-10-08T00:16:34.171Z,100332.33
2017-10-08T00:19:01.336Z,100341.89
2017-10-08T00:21:28.496Z,100342.37
2017-10-08T00:23:55.649Z,100343.32
2017-10-08T00:26:23.582Z,100339.45
2017-10-08T00:28:50.748Z,100348.61
2017-10-08T00:31:17.900Z,100349.44
2017-10-08T00:33:45.039Z,100348.19
2017-10-08T00:36:12.191Z,100352.53
2017-10-08T00:38:39.360Z,100352.17
2017-10-08T00:41:06.513Z,100354.78
2017-10-08T00:43:33.671Z,100355.20
2017-10-08T00:46:00.819Z,100364.83
2017-10-08T00:48:27.974Z,100364.00
2017-10-08T00:50:55.132Z,100359.23
2017-10-08T00:53:22.295Z,100360.08
2017-10-08T00:55:50.207Z,100356.21
2017-10-08T00:58:17.350Z,100368.87
2017-10-08T01:00:44.503Z,100363.64
2017-10-08T01:03:11.668Z,100361.08
2017-10-08T01:05:38.832Z,100359.36
2017-10-08T01:08:05.981Z,100355.91
2017-10-08T01:10:33.131Z,100365.95
2017-10-08T01:13:00.265Z,100370.77
2017-10-08T01:15:27.419Z,100371.19
2017-10-08T01:17:54.557Z,100364.70
2017-10-08T01:20:21.693Z,100366.42
2017-10-08T01:22:48.834Z,100363.39
2017-10-08T01:25:15.990Z,100361.70
2017-10-08T01:27:43.172Z,100362.59
2017-10-08T01:30:10.310Z,100365.13
2017-10-08T01:32:37.627Z,100363.07
2017-10-08T01:35:05.530Z,100367.32
2017-10-08T01:37:32.670Z,100369.19
2017-10-08T01:39:59.806Z,100370.55
2017-10-08T01:42:26.960Z,100369.66
2017-10-08T01:44:54.093Z,100371.39
2017-10-08T01:47:21.247Z,100379.66
2017-10-08T01:49:48.386Z,100377.52
2017-10-08T01:52:15.531Z,100372.76
2017-10-08T01:54:42.665Z,100375.78
2017-10-08T01:57:09.820Z,100378.45
2017-10-08T01:59:36.974Z,100381.97
2017-10-08T02:02:04.118Z,100378.05
2017-10-08T02:04:31.260Z,100371.98
2017-10-08T02:06:59.204Z,100378.94
2017-10-08T02:09:26.349Z,100377.62
2017-10-08T02:11:53.504Z,100378.98
2017-10-08T02:14:20.688Z,100382.44
2017-10-08T02:16:47.825Z,100379.41
2017-10-08T02:19:14.979Z,100384.64
2017-10-08T02:21:42.131Z,100380.30
2017-10-08T02:24:09.279Z,100381.66
2017-10-08T02:26:36.427Z,100382.91
2017-10-08T02:29:03.580Z,100392.95
2017-10-08T02:31:30.736Z,100389.98
2017-10-08T02:33:57.888Z,100390.45
2017-10-08T02:36:25.048Z,100386.53
2017-10-08T02:38:52.975Z,100393.48
2017-10-08T02:41:20.283Z,100393.55
2017-10-08T02:43:48.185Z,100393.48
2017-10-08T02:46:15.318Z,100394.80
2017-10-08T02:48:42.462Z,100403.53
2017-10-08T02:51:09.606Z,100404.89
2017-10-08T02:53:36.767Z,100410.06
2017-10-08T02:56:04.124Z,100406.20
2017-10-08T02:58:31.284Z,100410.95
2017-10-08T03:00:58.439Z,100411.43
2017-10-08T03:03:25.592Z,100411.02
2017-10-08T03:05:52.762Z,100404.53
2017-10-08T03:08:19.898Z,100414.09
2017-10-08T03:10:47.051Z,100418.44
2017-10-08T03:13:14.199Z,100421.11
2017-10-08T03:15:41.351Z,100421.05
2017-10-08T03:18:08.494Z,100419.39
2017-10-08T03:20:35.669Z,100430.67
2017-10-08T03:23:03.588Z,100434.19
2017-10-08T03:25:30.725Z,100433.34
2017-10-08T03:27:57.866Z,100432.55
2017-10-08T03:30:25.131Z,100435.16
2017-10-08T03:32:52.281Z,100431.62
2017-10-08T03:35:19.447Z,100438.99
2017-10-08T03:37:46.592Z,100438.52
2017-10-08T03:40:13.753Z,100439.41
2017-10-08T03:42:40.892Z,100439.35
2017-10-08T03:45:08.073Z,100444.05
2017-10-08T03:47:35.218Z,100449.28
2017-10-08T03:50:02.367Z,100447.02
2017-10-08T03:52:29.507Z,100448.69
2017-10-08T03:54:56.664Z,100453.87
2017-10-08T03:57:24.569Z,100452.55
2017-10-08T03:59:51.848Z,100451.61
2017-10-08T04:02:19.764Z,100453.69
2017-10-08T04:04:47.072Z,100457.14
2017-10-08T04:07:14.227Z,100459.67
2017-10-08T04:09:41.362Z,100465.67
2017-10-08T04:12:09.292Z,100469.12
2017-10-08T04:14:36.441Z,100465.14
2017-10-08T04:17:03.582Z,100467.28
2017-10-08T04:19:30.760Z,100477.69
2017-10-08T04:21:57.901Z,100472.81
2017-10-08T04:24:25.036Z,100472.34
2017-10-08T04:26:52.190Z,100474.90
2017-10-08T04:29:19.325Z,100474.42
2017-10-08T04:31:46.457Z,100470.08
2017-10-08T04:34:13.613Z,100469.97
2017-10-08T04:36:40.757Z,100471.66
2017-10-08T04:39:07.893Z,100472.50
2017-10-08T04:41:35.053Z,100472.08
2017-10-08T04:44:02.216Z,100476.51
2017-10-08T04:46:29.353Z,100473.39
2017-10-08T04:48:56.486Z,100476.89
2017-10-08T04:51:23.640Z,100481.32
2017-10-08T04:53:50.781Z,100483.05
2017-10-08T04:56:17.931Z,100489.58
2017-10-08T04:58:45.081Z,100485.30
2017-10-08T05:01:12.235Z,100487.91
2017-10-08T05:03:39.407Z,100485.77
2017-10-08T05:06:06.541Z,100489.70
2017-10-08T05:08:33.705Z,100483.22
2017-10-08T05:11:00.853Z,100483.69
2017-10-08T05:13:27.990Z,100490.23
2017-10-08T05:15:55.146Z,100483.75
2017-10-08T05:18:22.289Z,100488.98
2017-10-08T05:20:49.437Z,100485.53
2017-10-08T05:23:16.587Z,100495.57
2017-10-08T05:25:43.723Z,100490.40
2017-10-08T05:28:10.884Z,100497.41
2017-10-08T05:30:38.035Z,100501.75
2017-10-08T05:33:05.178Z,100508.76
2017-10-08T05:35:32.308Z,100497.52
2017-10-08T05:37:59.476Z,100504.00
2017-10-08T05:40:26.636Z,100509.29
2017-10-08T05:42:53.789Z,100503.64
2017-10-08T05:45:20.948Z,100511.48
2017-10-08T05:47:48.115Z,100513.69
2017-10-08T05:50:15.269Z,100512.84
2017-10-08T05:52:42.417Z,100515.47
2017-10-08T05:55:09.564Z,100518.08
2017-10-08T05:57:36.715Z,100517.66
2017-10-08T06:00:03.878Z,100529.05
2017-10-08T06:02:31.032Z,100531.16
2017-10-08T06:04:58.189Z,100537.27
2017-10-08T06:07:25.325Z,100535.97
2017-10-08T06:09:52.473Z,100534.19
2017-10-08T06:12:19.626Z,100535.91
2017-10-08T06:14:46.786Z,100542.45
2017-10-08T06:17:13.933Z,100544.12
2017-10-08T06:19:41.073Z,100551.55
2017-10-08T06:22:08.218Z,100546.73
2017-10-08T06:24:35.372Z,100554.10
2017-10-08T06:27:02.511Z,100557.61
2017-10-08T06:29:29.674Z,100561.53
2017-10-08T06:31:56.828Z,100563.67
2017-10-08T06:34:23.965Z,100562.36
2017-10-08T06:36:51.108Z,100560.17
2017-10-08T06:39:18.241Z,100559.33
2017-10-08T06:41:45.423Z,100564.56
2017-10-08T06:44:12.572Z,100565.87
2017-10-08T06:46:39.728Z,100577.58
2017-10-08T06:49:06.886Z,100573.71
2017-10-08T06:51:34.023Z,100578.52
2017-10-08T06:54:01.184Z,100587.67
2017-10-08T06:56:28.340Z,100589.81
2017-10-08T06:58:55.497Z,100594.22
2017-10-08T07:01:22.656Z,100598.19
2017-10-08T07:03:49.793Z,100599.50
2017-10-08T07:06:16.929Z,100600.81
2017-10-08T07:08:44.087Z,100595.16
2017-10-08T07:11:11.251Z,100602.11
2017-10-08T07:13:38.419Z,100601.70
2017-10-08T07:16:05.562Z,100604.73
2017-10-08T07:18:32.705Z,100606.09
2017-10-08T07:20:59.838Z,100611.32
2017-10-08T07:23:27.000Z,100613.52
2017-10-08T07:25:54.147Z,100610.43
2017-10-08T07:28:21.303Z,100614.83
2017-10-08T07:30:48.455Z,100617.03
2017-10-08T07:33:15.597Z,100628.31
2017-10-08T07:35:42.909Z,100624.39
2017-10-08T07:38:10.045Z,100627.10
2017-10-08T07:40:37.193Z,100634.86
2017-10-08T07:43:04.329Z,100631.83
2017-10-08T07:45:32.230Z,100630.09
2017-10-08T07:47:59.381Z,100634.44
2017-10-08T07:50:26.535Z,100640.92
2017-10-08T07:52:53.688Z,100644.42
2017-10-08T07:55:20.830Z,100642.28
2017-10-08T07:57:47.984Z,100650.13
2017-10-08T08:00:15.148Z,100650.63
2017-10-08T08:02:42.286Z,100655.92
2017-10-08T08:05:09.445Z,100648.55
2017-10-08T08:07:36.582Z,100659.84
2017-10-08T08:10:03.726Z,100661.98
2017-10-08T08:12:30.888Z,100661.62
2017-10-08T08:14:58.025Z,100666.43
2017-10-08T08:17:25.170Z,100669.05
2017-10-08T08:19:52.323Z,100660.31
2017-10-08T08:22:19.475Z,100679.03
2017-10-08T08:24:46.623Z,100672.55
2017-10-08T08:27:13.762Z,100684.13
2017-10-08T08:29:40.898Z,100686.31
2017-10-08T08:32:08.061Z,100680.20
2017-10-08T08:34:35.224Z,100688.05
2017-10-08T08:37:02.379Z,100691.91
2017-10-08T08:39:29.519Z,100696.72
2017-10-08T08:41:56.668Z,100708.49
2017-10-08T08:44:23.806Z,100709.33
2017-10-08T08:46:50.958Z,100712.72
2017-10-08T08:49:18.110Z,100717.89
2017-10-08T08:51:45.270Z,100727.05
2017-10-08T08:54:12.408Z,100727.52
2017-10-08T08:56:39.547Z,100734.89
2017-10-08T08:59:06.713Z,100735.37
2017-10-08T09:01:33.854Z,100739.29
2017-10-08T09:04:01.030Z,100747.97
2017-10-08T09:06:28.360Z,100750.17
2017-10-08T09:08:56.296Z,100748.86
2017-10-08T09:11:23.500Z,100756.28
2017-10-08T09:13:50.652Z,100755.92
2017-10-08T09:16:17.812Z,100756.34
2017-10-08T09:18:44.953Z,100762.41
2017-10-08T09:21:12.113Z,100766.33
2017-10-08T09:23:39.267Z,100768.47
2017-10-08T09:26:06.402Z,100774.23
2017-10-08T09:28:33.538Z,100780.72
2017-10-08T09:31:00.694Z,100776.27
2017-10-08T09:33:27.842Z,100781.91
2017-10-08T09:35:55.012Z,100781.91
2017-10-08T09:38:22.237Z,100784.89
2017-10-08T09:40:49.404Z,100783.17
2017-10-08T09:43:16.547Z,100790.59
2017-10-08T09:45:43.704Z,100786.20
2017-10-08T09:48:10.856Z,100793.10
2017-10-08T09:50:37.995Z,100795.25
2017-10-08T09:53:05.560Z,100791.80
2017-10-08T09:55:32.740Z,100800.06
2017-10-08T09:57:59.897Z,100799.70
2017-10-08T10:00:27.041Z,100801.05
2017-10-08T10:02:54.205Z,100802.41
2017-10-08T10:05:21.364Z,100808.84
2017-10-08T10:07:48.669Z,100803.67
2017-10-08T10:10:15.810Z,100809.79
2017-10-08T10:12:42.949Z,100808.11
2017-10-08T10:15:10.141Z,100809.01
2017-10-08T10:17:38.313Z,100811.67
2017-10-08T10:20:05.488Z,100803.46
2017-10-08T10:22:32.650Z,100806.50
2017-10-08T10:24:59.798Z,100806.91
2017-10-08T10:27:26.956Z,100800.43
2017-10-08T10:29:59.522Z,100800.91
2017-10-08T10:32:27.451Z,100806.08
2017-10-08T10:34:54.597Z,100811.25
2017-10-08T10:37:21.734Z,100810.00
2017-10-08T10:39:48.930Z,100810.84
2017-10-08T10:42:16.104Z,100820.36
2017-10-08T10:44:44.038Z,100811.57
2017-10-08T10:47:11.193Z,100807.54
2017-10-08T10:49:38.348Z,100812.19
2017-10-08T10:52:05.499Z,100806.07
2017-10-08T10:54:32.646Z,100813.03
2017-10-08T10:56:59.786Z,100817.38
2017-10-08T10:59:26.921Z,100814.67
2017-10-08T11:01:54.078Z,100822.88
2017-10-08T11:04:21.216Z,100821.52
2017-10-08T11:06:48.361Z,100829.36
2017-10-08T11:09:15.503Z,100834.08
2017-10-08T11:11:42.647Z,100836.63
2017-10-08T11:14:09.793Z,100852.75
2017-10-08T11:16:36.984Z,100863.68
2017-10-08T11:19:04.233Z,100868.02
2017-10-08T11:21:31.392Z,100865.88
2017-10-08T11:23:58.615Z,100867.60
2017-10-08T11:26:25.755Z,100866.66
2017-10-08T11:28:52.943Z,100872.20
2017-10-08T11:31:20.101Z,100872.78
2017-10-08T11:33:47.238Z,100872.83
2017-10-08T11:36:14.393Z,100867.77
2017-10-08T11:38:41.541Z,100870.01
2017-10-08T11:41:08.708Z,100868.28
2017-10-08T11:43:35.845Z,100868.37
2017-10-08T11:46:02.986Z,100870.15
2017-10-08T11:48:30.157Z,100875.43
2017-10-08T11:50:57.569Z,100870.25
2017-10-08T11:53:24.788Z,100876.38
2017-10-08T11:55:51.940Z,100884.22
2017-10-08T11:58:19.093Z,100878.63
2017-10-08T12:00:46.241Z,100876.84
2017-10-08T12:03:16.065Z,100872.81
2017-10-08T12:05:43.280Z,100870.25
2017-10-08T12:08:10.700Z,100873.28
2017-10-08T12:10:37.861Z,100863.77
2017-10-08T12:13:05.297Z,100869.41
2017-10-08T12:15:32.445Z,100873.81
2017-10-08T12:17:59.606Z,100874.64
2017-10-08T12:20:26.768Z,100877.27
2017-10-08T12:22:53.924Z,100876.84
2017-10-08T12:25:21.065Z,100879.46
2017-10-08T12:27:48.227Z,100876.00
2017-10-08T12:30:15.398Z,100876.42
2017-10-08T12:32:42.560Z,100874.23
2017-10-08T12:35:09.712Z,100879.04
2017-10-08T12:37:37.628Z,100877.27
2017-10-08T12:40:04.771Z,100878.98
2017-10-08T12:42:31.926Z,100878.09
2017-10-08T12:44:59.080Z,100885.99
2017-10-08T12:47:26.240Z,100890.34
2017-10-08T12:49:53.413Z,100889.03
2017-10-08T12:52:20.568Z,100898.18
2017-10-08T12:54:47.727Z,100885.99
2017-10-08T12:57:14.868Z,100896.41
2017-10-08T12:59:42.024Z,100884.69
2017-10-08T13:02:09.501Z,100887.72
2017-10-08T13:04:37.409Z,100882.07
2017-10-08T13:07:04.569Z,100882.07
2017-10-08T13:09:31.705Z,100882.49
2017-10-08T13:11:58.874Z,100883.84
2017-10-08T13:14:26.017Z,100891.28
2017-10-08T13:16:53.156Z,100883.44
2017-10-08T13:19:20.316Z,100897.40
2017-10-08T13:21:47.475Z,100893.89
2017-10-08T13:24:14.623Z,100899.55
2017-10-08T13:26:41.874Z,100896.09
2017-10-08T13:29:09.039Z,100889.13
2017-10-08T13:31:36.177Z,100890.86
2017-10-08T13:34:03.342Z,100893.95
2017-10-08T13:36:30.552Z,100893.95
2017-10-08T13:38:57.735Z,100896.98
2017-10-08T13:41:24.878Z,100890.91
2017-10-08T13:43:52.025Z,100883.48
2017-10-08T13:46:19.187Z,100888.72
2017-10-08T13:48:46.339Z,100893.11
2017-10-08T13:51:13.499Z,100894.41
2017-10-08T13:53:40.667Z,100890.49
2017-10-08T13:56:07.810Z,100883.95
2017-10-08T13:58:34.959Z,100884.37
2017-10-08T14:01:02.134Z,100890.97
2017-10-08T14:03:29.278Z,100884.84
2017-10-08T14:05:56.443Z,100897.92
2017-10-08T14:08:23.617Z,100896.61
2017-10-08T14:10:50.761Z,100889.66
2017-10-08T14:13:17.919Z,100891.85
2017-10-08T14:15:45.065Z,100898.81
2017-10-08T14:18:12.214Z,100903.16
2017-10-08T14:20:39.353Z,100897.09
2017-10-08T14:23:06.692Z,100895.77
2017-10-08T14:25:34.610Z,100898.39
2017-10-08T14:28:01.767Z,100901.01
2017-10-08T14:30:29.421Z,100904.45
2017-10-08T14:32:56.570Z,100907.08
2017-10-08T14:35:23.744Z,100919.27
2017-10-08T14:37:50.915Z,100917.95
2017-10-08T14:40:18.094Z,100920.94
2017-10-08T14:42:45.241Z,100917.53
2017-10-08T14:45:12.408Z,100920.52
2017-10-08T14:47:39.576Z,100920.56
2017-10-08T14:50:06.736Z,100929.30
2017-10-08T14:52:33.900Z,100926.16
2017-10-08T14:55:01.060Z,100922.30
2017-10-08T14:57:28.206Z,100923.60
2017-10-08T14:59:55.384Z,100926.22
2017-10-08T15:02:22.532Z,100927.53
2017-10-08T15:04:50.601Z,100923.19
2017-10-08T15:07:17.789Z,100930.61
2017-10-08T15:09:44.980Z,100932.81
2017-10-08T15:12:12.140Z,100931.86
2017-10-08T15:14:40.075Z,100929.72
2017-10-08T15:17:08.022Z,100929.72
2017-10-08T15:19:35.216Z,100932.39
2017-10-08T15:22:02.817Z,100934.95
2017-10-08T15:24:29.995Z,100935.42
2017-10-08T15:26:57.158Z,100933.64
2017-10-08T15:29:24.305Z,100930.19
2017-10-08T15:31:51.473Z,100931.08
2017-10-08T15:34:19.396Z,100938.45
2017-10-08T15:36:46.629Z,100944.58
2017-10-08T15:39:13.893Z,100943.27
2017-10-08T15:41:41.063Z,100940.66
2017-10-08T15:44:08.201Z,100944.16
2017-10-08T15:46:35.353Z,100948.08
2017-10-08T15:49:02.498Z,100952.84
2017-10-08T15:51:29.674Z,100959.84
2017-10-08T15:53:56.833Z,100967.27
2017-10-08T15:56:23.986Z,100969.47
2017-10-08T15:58:51.159Z,100964.70
2017-10-08T16:01:18.344Z,100965.66
2017-10-08T16:03:45.700Z,100969.98
2017-10-08T16:06:12.852Z,100967.80
2017-10-08T16:08:40.012Z,100975.17
2017-10-08T16:11:07.161Z,100974.38
2017-10-08T16:13:34.309Z,100976.58
2017-10-08T16:16:02.021Z,100977.89
2017-10-08T16:18:30.135Z,100976.11
2017-10-08T16:20:58.277Z,100977.84
2017-10-08T16:23:25.496Z,100975.69
2017-10-08T16:25:53.202Z,100979.61
2017-10-08T16:28:20.508Z,100977.69
2017-10-08T16:30:48.549Z,100981.97
2017-10-08T16:33:15.698Z,100979.63
2017-10-08T16:35:42.845Z,100976.02
2017-10-08T16:38:10.007Z,100982.00
2017-10-08T16:40:37.447Z,100978.45
2017-10-08T16:43:04.626Z,100982.73
2017-10-08T16:45:32.275Z,100990.53
2017-10-08T16:48:00.845Z,100991.38
2017-10-08T16:50:28.048Z,100998.28
2017-10-08T16:52:55.854Z,101005.19
2017-10-08T16:55:24.201Z,101010.84
2017-10-08T16:57:52.219Z,101014.29
2017-10-08T17:00:19.396Z,101023.03
2017-10-08T17:02:47.675Z,101027.89
2017-10-08T17:05:14.883Z,101026.53
2017-10-08T17:07:42.534Z,101030.92
2017-10-08T17:10:10.433Z,101036.63
2017-10-08T17:12:38.640Z,101031.86
2017-10-08T17:15:05.854Z,101037.62
2017-10-08T17:17:34.058Z,101043.78
2017-10-08T17:20:02.023Z,101044.25
2017-10-08T17:22:30.514Z,101042.06
2017-10-08T17:24:58.031Z,101049.02
2017-10-08T17:27:25.701Z,101055.98
2017-10-08T17:29:54.064Z,101052.10
2017-10-08T17:32:21.309Z,101047.71
2017-10-08T17:34:48.474Z,101052.10
2017-10-08T17:37:15.633Z,101051.16
2017-10-08T17:39:42.818Z,101051.22
2017-10-08T17:42:10.225Z,101053.83
2017-10-08T17:44:37.570Z,101062.09
2017-10-08T17:47:04.722Z,101064.71
2017-10-08T17:49:32.849Z,101061.16
2017-10-08T17:52:00.580Z,101062.41
2017-10-08T17:54:27.764Z,101068.06
2017-10-08T17:56:55.565Z,101074.61
2017-10-08T17:59:22.823Z,101069.42
2017-10-08T18:01:50.017Z,101075.55
2017-10-08T18:04:18.231Z,101085.12
2017-10-08T18:06:46.974Z,101085.53
2017-10-08T18:09:14.318Z,101091.19
2017-10-08T18:11:42.461Z,101099.08
2017-10-08T18:14:10.680Z,101099.92
2017-10-08T18:16:39.115Z,101106.46
2017-10-08T18:19:07.341Z,101116.45
2017-10-08T18:21:36.412Z,101113.42
2017-10-08T18:24:06.327Z,101115.15
2017-10-08T18:26:34.197Z,101116.45
2017-10-08T18:29:01.620Z,101112.53
2017-10-08T18:31:30.064Z,101112.11
2017-10-08T18:33:58.968Z,101107.30
2017-10-08T18:36:27.911Z,101109.91
2017-10-08T18:38:57.231Z,101115.15
2017-10-08T18:41:26.399Z,101118.19
2017-10-08T18:43:55.089Z,101118.60
2017-10-08T18:46:22.475Z,101121.64
2017-10-08T18:48:51.685Z,101120.38
2017-10-08T18:51:20.222Z,101125.98
2017-10-08T18:53:48.473Z,101125.56
2017-10-08T18:56:15.690Z,101129.02
2017-10-08T18:58:44.676Z,101127.76
2017-10-08T19:01:12.077Z,101134.72
2017-10-08T19:03:41.526Z,101136.86
2017-10-08T19:06:10.595Z,101135.55
2017-10-08T19:08:40.306Z,101143.82
2017-10-08T19:11:08.862Z,101143.82
2017-10-08T19:13:37.956Z,101143.82
2017-10-08T19:16:05.936Z,101140.31
2017-10-08T19:18:34.255Z,101138.59
2017-10-08T19:21:01.623Z,101139.48
2017-10-08T19:23:30.126Z,101146.44
2017-10-08T19:25:58.624Z,101146.86
2017-10-08T19:28:27.256Z,101140.73
2017-10-08T19:30:55.810Z,101144.24
2017-10-08T19:33:24.068Z,101149.00
2017-10-08T19:35:51.746Z,101155.96
2017-10-08T19:38:19.213Z,101156.38
2017-10-08T19:40:47.101Z,101158.58
2017-10-08T19:43:14.560Z,101162.92
2017-10-08T19:45:43.050Z,101163.34
2017-10-08T19:48:11.244Z,101163.34
2017-10-08T19:50:39.651Z,101166.01
2017-10-08T19:53:07.565Z,101168.63
2017-10-08T19:55:35.954Z,101169.93
2017-10-08T19:58:03.966Z,101179.50
2017-10-08T20:00:32.479Z,101182.13
2017-10-08T20:02:59.678Z,101175.03
2017-10-08T20:05:26.897Z,101181.58
2017-10-08T20:07:54.055Z,101180.69
2017-10-08T20:10:21.290Z,101177.73
2017-10-08T20:12:48.494Z,101185.63
2017-10-08T20:15:15.909Z,101184.78
2017-10-08T20:17:43.069Z,101177.36
2017-10-08T20:20:10.381Z,101186.14
2017-10-08T20:22:38.326Z,101192.27
2017-10-08T20:25:05.534Z,101190.02
2017-10-08T20:27:32.686Z,101190.95
2017-10-08T20:29:59.832Z,101189.23
2017-10-08T20:32:26.990Z,101196.66
2017-10-08T20:34:54.491Z,101188.24
2017-10-08T20:37:21.635Z,101186.41
2017-10-08T20:39:48.808Z,101184.73
2017-10-08T20:42:16.734Z,101190.86
2017-10-08T20:44:43.893Z,101193.10
2017-10-08T20:47:11.042Z,101198.34
2017-10-08T20:49:38.190Z,101202.26
2017-10-08T20:52:05.352Z,101200.53
2017-10-08T20:54:32.533Z,101197.49
2017-10-08T20:56:59.682Z,101199.27
2017-10-08T20:59:27.555Z,101196.66
2017-10-08T21:01:55.463Z,101198.02
2017-10-08T21:04:22.621Z,101203.66
2017-10-08T21:06:49.761Z,101206.28
2017-10-08T21:09:16.906Z,101208.89
2017-10-08T21:11:44.062Z,101210.25
2017-10-08T21:14:11.251Z,101216.33
2017-10-08T21:16:38.412Z,101215.06
2017-10-08T21:19:06.652Z,101217.26
2017-10-08T21:21:33.801Z,101209.41
2017-10-08T21:24:00.937Z,101213.80
2017-10-08T21:26:28.523Z,101213.39
2017-10-08T21:28:55.658Z,101209.93
2017-10-08T21:31:22.833Z,101211.70
2017-10-08T21:33:49.974Z,101210.40
2017-10-08T21:36:17.128Z,101207.41
2017-10-08T21:38:44.284Z,101206.57
2017-10-08T21:41:11.553Z,101209.69
2017-10-08T21:43:39.468Z,101204.03
2017-10-08T21:46:06.638Z,101205.34
2017-10-08T21:48:33.807Z,101204.09
2017-10-08T21:51:00.968Z,101206.28
2017-10-08T21:53:28.145Z,101201.94
2017-10-08T21:55:55.299Z,101205.91
2017-10-08T21:58:22.446Z,101206.80
2017-10-08T22:00:50.168Z,101210.77
2017-10-08T22:03:17.329Z,101205.53
2017-10-08T22:05:45.709Z,101206.89
2017-10-08T22:08:12.919Z,101211.70
2017-10-08T22:10:40.075Z,101213.43
2017-10-08T22:13:07.227Z,101218.30
2017-10-08T22:15:34.368Z,101214.84
2017-10-08T22:18:01.502Z,101206.56
2017-10-08T22:20:28.646Z,101205.68
2017-10-08T22:22:55.786Z,101210.02
2017-10-08T22:25:22.922Z,101212.22
2017-10-08T22:27:50.816Z,101210.02
2017-10-08T22:30:18.018Z,101210.02
2017-10-08T22:32:45.182Z,101209.19
2017-10-08T22:35:12.321Z,101204.80
2017-10-08T22:37:39.474Z,101201.24
2017-10-08T22:40:06.628Z,101210.40
2017-10-08T22:42:33.779Z,101210.77
2017-10-08T22:45:00.939Z,101217.26
2017-10-08T22:47:28.085Z,101213.76
2017-10-08T22:49:55.487Z,101212.40
2017-10-08T22:52:22.629Z,101214.55
2017-10-08T22:54:49.777Z,101214.08
2017-10-08T22:57:16.935Z,101212.72
2017-10-08T22:59:44.081Z,101212.22
2017-10-08T23:02:11.240Z,101219.18
2017-10-08T23:04:38.392Z,101209.61
2017-10-08T23:07:05.544Z,101210.11
2017-10-08T23:09:32.698Z,101214.84
2017-10-08T23:11:59.847Z,101207.49
2017-10-08T23:14:27.005Z,101210.91
2017-10-08T23:16:54.137Z,101215.25
2017-10-08T23:19:21.294Z,101212.77
2017-10-08T23:21:48.430Z,101212.81
2017-10-08T23:24:15.570Z,101210.63
2017-10-08T23:26:42.736Z,101204.13
2017-10-08T23:29:09.883Z,101208.48
2017-10-08T23:31:37.025Z,101215.48
2017-10-08T23:34:04.175Z,101198.48
2017-10-08T23:36:31.495Z,101200.73
2017-10-08T23:38:58.634Z,101198.53
2017-10-08T23:41:25.793Z,101202.08
2017-10-08T23:43:52.933Z,101206.47
2017-10-08T23:46:20.082Z,101210.40
2017-10-08T23:48:47.253Z,101209.09
2017-10-08T23:51:14.408Z,101201.34
2017-10-08T23:53:41.560Z,101203.06
2017-10-08T23:56:08.705Z,101205.27
2017-10-08T23:58:35.850Z,101211.38
